Aviation Digital Data Service (ADDS)

Output produced by METARs form (1639 UTC 02 September 2014)
found at http://aviationweather.gov/adds/metars/
 
KCRG 021120Z 0212/0312 16003KT P6SM SCT250 
     FM021600 28003KT P6SM SCT035 SCT250 
     FM021800 11008KT P6SM VCTS SCT035CB BKN250 
     FM022200 12008KT P6SM FEW040 SCT250 
     FM030100 15003KT P6SM BKN250